Terminal Aerodrome Forecast
Issued by NWS Wichita, KS

Home | Current Version | Previous Version | Text Only | Print | Product List | Glossary On
Versions: 1 2 3 4 5 6 7 8 9 10 11 12 13 14 15 16
000
FTUS43 KICT 301120
TAFICT
TAF
KICT 301120Z 3012/3112 01005KT 3SM BR SCT002
      TEMPO 3012/3015 1/4SM FG OVC002
     FM301500 05005KT 3SM BR OVC005
     FM301630 07005KT P6SM OVC015
     FM302100 12007KT P6SM BKN025=

USA.gov is the U.S. government's official web portal to all federal, state and local government web resources and services.